Prairie Ridge, Washington
Current Conditions -  °F | °C
As of 4:58 AM on Friday 24 Oct 2014 (Local Time) from KTCM Reporting Station
Few Clouds Few Clouds  
Wind Chill: 48°   Ceiling: Unl
Heat Index: 48°   Visibility: 10mi
Dew Point: 47°   Wind: 2mph
Humidity: 99%   Direction: 80°E
Pressure: 30.03"   Gusts: NA
Location:  47.1874°N, 122.164°W
Report Text: KTCM 241158Z AUTO 08002KT 10SM FEW035 09/09 A3003 RMK AO2 SLP174 60008 70036 T00870086 10097 20087 58001 $
Loading
Personal Weather Stations






























Interactive Weather Map
Tropical Storm Tracking
New forecast layout! Learn more

10-Day Weather Forecast

Advertisements
Track Severe Weather on mobile